sensor_id;sensor_type;location;lat;lon;timestamp;temperature;humidity
51557;DHT22;38766;53.194;5.532;2022-09-16T00:00:17;14.00;99.90
51557;DHT22;38766;53.194;5.532;2022-09-16T00:02:43;13.90;99.90
51557;DHT22;38766;53.194;5.532;2022-09-16T00:05:09;13.80;99.90
51557;DHT22;38766;53.194;5.532;2022-09-16T00:07:35;13.80;99.90
51557;DHT22;38766;53.194;5.532;2022-09-16T00:10:01;13.70;99.90
51557;DHT22;38766;53.194;5.532;2022-09-16T00:12:27;13.70;99.90
51557;DHT22;38766;53.194;5.532;2022-09-16T00:14:53;13.70;99.90
51557;DHT22;38766;53.194;5.532;2022-09-16T00:17:19;13.70;99.90
51557;DHT22;38766;53.194;5.532;2022-09-16T00:19:45;13.80;99.90
51557;DHT22;38766;53.194;5.532;2022-09-16T00:22:11;13.80;99.90
51557;DHT22;38766;53.194;5.532;2022-09-16T00:24:37;13.80;99.90
51557;DHT22;38766;53.194;5.532;2022-09-16T00:27:02;13.80;99.90
51557;DHT22;38766;53.194;5.532;2022-09-16T00:29:28;13.80;99.90
51557;DHT22;38766;53.194;5.532;2022-09-16T00:31:54;13.80;99.90
51557;DHT22;38766;53.194;5.532;2022-09-16T00:34:19;13.80;99.90
51557;DHT22;38766;53.194;5.532;2022-09-16T00:36:45;13.80;99.90
51557;DHT22;38766;53.194;5.532;2022-09-16T00:39:11;13.90;99.90
51557;DHT22;38766;53.194;5.532;2022-09-16T00:41:36;13.90;99.90
51557;DHT22;38766;53.194;5.532;2022-09-16T00:44:49;13.90;99.90
51557;DHT22;38766;53.194;5.532;2022-09-16T00:46:52;13.90;99.90
51557;DHT22;38766;53.194;5.532;2022-09-16T00:49:24;13.90;99.90
51557;DHT22;38766;53.194;5.532;2022-09-16T00:51:54;13.80;99.90
51557;DHT22;38766;53.194;5.532;2022-09-16T00:54:21;13.80;99.90
51557;DHT22;38766;53.194;5.532;2022-09-16T00:56:49;13.80;99.90
51557;DHT22;38766;53.194;5.532;2022-09-16T00:59:32;13.80;99.90
51557;DHT22;38766;53.194;5.532;2022-09-16T01:02:01;13.80;99.90
51557;DHT22;38766;53.194;5.532;2022-09-16T01:04:35;13.70;99.90
51557;DHT22;38766;53.194;5.532;2022-09-16T01:07:01;13.70;99.90
51557;DHT22;38766;53.194;5.532;2022-09-16T01:09:28;13.70;99.90
51557;DHT22;38766;53.194;5.532;2022-09-16T01:11:55;13.70;99.90
51557;DHT22;38766;53.194;5.532;2022-09-16T01:14:22;13.80;99.90
51557;DHT22;38766;53.194;5.532;2022-09-16T01:17:36;13.70;99.90
51557;DHT22;38766;53.194;5.532;2022-09-16T01:29:01;13.70;99.90
51557;DHT22;38766;53.194;5.532;2022-09-16T01:31:45;13.70;99.90
51557;DHT22;38766;53.194;5.532;2022-09-16T01:39:47;13.60;99.90
51557;DHT22;38766;53.194;5.532;2022-09-16T01:45:21;13.70;99.90
51557;DHT22;38766;53.194;5.532;2022-09-16T01:48:04;13.60;99.90
51557;DHT22;38766;53.194;5.532;2022-09-16T01:58:25;13.60;99.90
51557;DHT22;38766;53.194;5.532;2022-09-16T02:00:57;13.60;99.90
51557;DHT22;38766;53.194;5.532;2022-09-16T02:03:28;13.60;99.90
51557;DHT22;38766;53.194;5.532;2022-09-16T02:05:59;13.60;99.90
51557;DHT22;38766;53.194;5.532;2022-09-16T02:08:37;13.70;99.90
51557;DHT22;38766;53.194;5.532;2022-09-16T02:11:07;13.60;99.90
51557;DHT22;38766;53.194;5.532;2022-09-16T02:13:42;13.70;99.90
51557;DHT22;38766;53.194;5.532;2022-09-16T02:16:11;13.60;99.90
51557;DHT22;38766;53.194;5.532;2022-09-16T02:18:40;13.60;99.90
51557;DHT22;38766;53.194;5.532;2022-09-16T02:21:10;13.60;99.90
51557;DHT22;38766;53.194;5.532;2022-09-16T02:23:45;13.60;99.90
51557;DHT22;38766;53.194;5.532;2022-09-16T02:26:16;13.60;99.90
51557;DHT22;38766;53.194;5.532;2022-09-16T02:28:46;13.70;99.90
51557;DHT22;38766;53.194;5.532;2022-09-16T02:31:13;13.70;99.90
51557;DHT22;38766;53.194;5.532;2022-09-16T02:33:48;13.60;99.90
51557;DHT22;38766;53.194;5.532;2022-09-16T02:36:20;13.60;99.90
51557;DHT22;38766;53.194;5.532;2022-09-16T02:38:52;13.50;99.90
51557;DHT22;38766;53.194;5.532;2022-09-16T02:41:19;13.50;99.90
51557;DHT22;38766;53.194;5.532;2022-09-16T02:43:45;13.50;99.90
51557;DHT22;38766;53.194;5.532;2022-09-16T02:46:42;13.50;99.90
51557;DHT22;38766;53.194;5.532;2022-09-16T02:49:37;13.50;99.90
51557;DHT22;38766;53.194;5.532;2022-09-16T02:52:17;13.50;99.90
51557;DHT22;38766;53.194;5.532;2022-09-16T02:55:02;13.50;99.90
51557;DHT22;38766;53.194;5.532;2022-09-16T02:57:30;13.50;99.90
51557;DHT22;38766;53.194;5.532;2022-09-16T02:59:57;13.40;99.90
51557;DHT22;38766;53.194;5.532;2022-09-16T03:02:22;13.40;99.90
51557;DHT22;38766;53.194;5.532;2022-09-16T03:04:48;13.40;99.90
51557;DHT22;38766;53.194;5.532;2022-09-16T03:07:14;13.40;99.90
51557;DHT22;38766;53.194;5.532;2022-09-16T03:09:43;13.40;99.90
51557;DHT22;38766;53.194;5.532;2022-09-16T03:20:15;13.30;99.90
51557;DHT22;38766;53.194;5.532;2022-09-16T03:31:09;13.40;99.90
51557;DHT22;38766;53.194;5.532;2022-09-16T03:33:46;13.30;99.90
51557;DHT22;38766;53.194;5.532;2022-09-16T03:36:17;13.40;99.90
51557;DHT22;38766;53.194;5.532;2022-09-16T03:38:45;13.40;99.90
51557;DHT22;38766;53.194;5.532;2022-09-16T03:41:12;13.40;99.90
51557;DHT22;38766;53.194;5.532;2022-09-16T03:43:38;13.50;99.90
51557;DHT22;38766;53.194;5.532;2022-09-16T03:46:09;13.50;99.90
51557;DHT22;38766;53.194;5.532;2022-09-16T03:48:35;13.50;99.90
51557;DHT22;38766;53.194;5.532;2022-09-16T03:51:01;13.50;99.90
51557;DHT22;38766;53.194;5.532;2022-09-16T03:53:26;13.50;99.90
51557;DHT22;38766;53.194;5.532;2022-09-16T03:55:52;13.50;99.90
51557;DHT22;38766;53.194;5.532;2022-09-16T03:58:17;13.40;99.90
51557;DHT22;38766;53.194;5.532;2022-09-16T04:00:47;13.40;99.90
51557;DHT22;38766;53.194;5.532;2022-09-16T04:03:15;13.40;99.90
51557;DHT22;38766;53.194;5.532;2022-09-16T04:05:40;13.40;99.90
51557;DHT22;38766;53.194;5.532;2022-09-16T04:08:06;13.40;99.90
51557;DHT22;38766;53.194;5.532;2022-09-16T04:10:31;13.40;99.90
51557;DHT22;38766;53.194;5.532;2022-09-16T04:12:59;13.30;99.90
51557;DHT22;38766;53.194;5.532;2022-09-16T04:15:24;13.30;99.90
51557;DHT22;38766;53.194;5.532;2022-09-16T04:17:51;13.20;99.90
51557;DHT22;38766;53.194;5.532;2022-09-16T04:20:16;13.30;99.90
51557;DHT22;38766;53.194;5.532;2022-09-16T04:22:42;13.30;99.90
51557;DHT22;38766;53.194;5.532;2022-09-16T04:25:08;13.30;99.90
51557;DHT22;38766;53.194;5.532;2022-09-16T04:27:34;13.30;99.90
51557;DHT22;38766;53.194;5.532;2022-09-16T04:30:03;13.30;99.90
51557;DHT22;38766;53.194;5.532;2022-09-16T04:32:29;13.30;99.90
51557;DHT22;38766;53.194;5.532;2022-09-16T04:34:54;13.40;99.90
51557;DHT22;38766;53.194;5.532;2022-09-16T04:37:20;13.30;99.90
51557;DHT22;38766;53.194;5.532;2022-09-16T04:39:45;13.40;99.90
51557;DHT22;38766;53.194;5.532;2022-09-16T04:42:11;13.40;99.90
51557;DHT22;38766;53.194;5.532;2022-09-16T04:44:38;13.40;99.90
51557;DHT22;38766;53.194;5.532;2022-09-16T04:47:03;13.40;99.90
51557;DHT22;38766;53.194;5.532;2022-09-16T04:49:29;13.40;99.90
51557;DHT22;38766;53.194;5.532;2022-09-16T04:51:54;13.40;99.90
51557;DHT22;38766;53.194;5.532;2022-09-16T04:54:20;13.50;99.90
51557;DHT22;38766;53.194;5.532;2022-09-16T04:56:46;13.40;99.90
51557;DHT22;38766;53.194;5.532;2022-09-16T04:59:11;13.50;99.90
51557;DHT22;38766;53.194;5.532;2022-09-16T05:01:37;13.40;99.90
51557;DHT22;38766;53.194;5.532;2022-09-16T05:04:06;13.50;99.90
51557;DHT22;38766;53.194;5.532;2022-09-16T05:06:34;13.50;99.90
51557;DHT22;38766;53.194;5.532;2022-09-16T05:09:01;13.50;99.90
51557;DHT22;38766;53.194;5.532;2022-09-16T05:11:31;13.60;99.90
51557;DHT22;38766;53.194;5.532;2022-09-16T05:13:58;13.50;99.90
51557;DHT22;38766;53.194;5.532;2022-09-16T05:16:24;13.60;99.90
51557;DHT22;38766;53.194;5.532;2022-09-16T05:18:54;13.50;99.90
51557;DHT22;38766;53.194;5.532;2022-09-16T05:21:21;13.60;99.90
51557;DHT22;38766;53.194;5.532;2022-09-16T05:23:47;13.50;99.90
51557;DHT22;38766;53.194;5.532;2022-09-16T05:26:16;13.50;99.90
51557;DHT22;38766;53.194;5.532;2022-09-16T05:28:42;13.50;99.90
51557;DHT22;38766;53.194;5.532;2022-09-16T05:33:40;13.50;99.90
51557;DHT22;38766;53.194;5.532;2022-09-16T05:36:16;13.50;99.90
51557;DHT22;38766;53.194;5.532;2022-09-16T05:38:43;13.40;99.90
51557;DHT22;38766;53.194;5.532;2022-09-16T05:41:09;13.40;99.90
51557;DHT22;38766;53.194;5.532;2022-09-16T05:43:35;13.40;99.90
51557;DHT22;38766;53.194;5.532;2022-09-16T05:46:02;13.40;99.90
51557;DHT22;38766;53.194;5.532;2022-09-16T05:48:29;13.30;99.90
51557;DHT22;38766;53.194;5.532;2022-09-16T05:51:00;13.40;99.90
51557;DHT22;38766;53.194;5.532;2022-09-16T05:53:26;13.40;99.90
51557;DHT22;38766;53.194;5.532;2022-09-16T05:56:06;13.40;99.90
51557;DHT22;38766;53.194;5.532;2022-09-16T05:58:33;13.40;99.90
51557;DHT22;38766;53.194;5.532;2022-09-16T06:01:08;13.40;99.90
51557;DHT22;38766;53.194;5.532;2022-09-16T06:03:35;13.40;99.90
51557;DHT22;38766;53.194;5.532;2022-09-16T06:08:47;13.40;99.90
51557;DHT22;38766;53.194;5.532;2022-09-16T06:11:13;13.40;99.90
51557;DHT22;38766;53.194;5.532;2022-09-16T06:13:39;13.40;99.90
51557;DHT22;38766;53.194;5.532;2022-09-16T06:16:05;13.40;99.90
51557;DHT22;38766;53.194;5.532;2022-09-16T06:18:31;13.50;99.90
51557;DHT22;38766;53.194;5.532;2022-09-16T06:21:05;13.50;99.90
51557;DHT22;38766;53.194;5.532;2022-09-16T06:23:31;13.40;99.90
51557;DHT22;38766;53.194;5.532;2022-09-16T06:26:02;13.50;99.90
51557;DHT22;38766;53.194;5.532;2022-09-16T06:28:28;13.50;99.90
51557;DHT22;38766;53.194;5.532;2022-09-16T06:31:13;13.50;99.90
51557;DHT22;38766;53.194;5.532;2022-09-16T06:33:39;13.60;99.90
51557;DHT22;38766;53.194;5.532;2022-09-16T06:36:11;13.60;99.90
51557;DHT22;38766;53.194;5.532;2022-09-16T06:38:37;13.60;99.90
51557;DHT22;38766;53.194;5.532;2022-09-16T06:41:05;13.60;99.90
51557;DHT22;38766;53.194;5.532;2022-09-16T06:43:31;13.60;99.90
51557;DHT22;38766;53.194;5.532;2022-09-16T06:46:02;13.70;99.90
51557;DHT22;38766;53.194;5.532;2022-09-16T06:48:30;13.70;99.90
51557;DHT22;38766;53.194;5.532;2022-09-16T06:51:02;13.80;99.90
51557;DHT22;38766;53.194;5.532;2022-09-16T06:53:28;13.80;99.90
51557;DHT22;38766;53.194;5.532;2022-09-16T06:55:54;13.90;99.90
51557;DHT22;38766;53.194;5.532;2022-09-16T06:58:20;13.90;99.90
51557;DHT22;38766;53.194;5.532;2022-09-16T07:00:46;14.00;99.90
51557;DHT22;38766;53.194;5.532;2022-09-16T07:03:11;14.10;99.90
51557;DHT22;38766;53.194;5.532;2022-09-16T07:05:37;14.30;99.90
51557;DHT22;38766;53.194;5.532;2022-09-16T07:08:02;14.50;99.90
51557;DHT22;38766;53.194;5.532;2022-09-16T07:10:28;14.70;99.90
51557;DHT22;38766;53.194;5.532;2022-09-16T07:12:55;15.00;99.90
51557;DHT22;38766;53.194;5.532;2022-09-16T07:15:20;15.20;99.90
51557;DHT22;38766;53.194;5.532;2022-09-16T07:17:46;15.40;99.90
51557;DHT22;38766;53.194;5.532;2022-09-16T07:20:12;15.60;99.90
51557;DHT22;38766;53.194;5.532;2022-09-16T07:22:37;15.70;99.90
51557;DHT22;38766;53.194;5.532;2022-09-16T07:25:03;15.50;99.90
51557;DHT22;38766;53.194;5.532;2022-09-16T07:27:29;15.20;99.90
51557;DHT22;38766;53.194;5.532;2022-09-16T07:29:56;15.00;99.90
51557;DHT22;38766;53.194;5.532;2022-09-16T07:32:22;14.80;99.90
51557;DHT22;38766;53.194;5.532;2022-09-16T07:34:47;14.60;99.90
51557;DHT22;38766;53.194;5.532;2022-09-16T07:37:13;14.50;99.90
51557;DHT22;38766;53.194;5.532;2022-09-16T07:39:39;14.40;99.90
51557;DHT22;38766;53.194;5.532;2022-09-16T07:42:05;14.30;99.90
51557;DHT22;38766;53.194;5.532;2022-09-16T07:44:31;14.30;99.90
51557;DHT22;38766;53.194;5.532;2022-09-16T07:46:57;14.40;99.90
51557;DHT22;38766;53.194;5.532;2022-09-16T07:49:22;14.50;99.90
51557;DHT22;38766;53.194;5.532;2022-09-16T07:51:48;14.80;99.90
51557;DHT22;38766;53.194;5.532;2022-09-16T07:54:16;15.00;99.90
51557;DHT22;38766;53.194;5.532;2022-09-16T07:56:42;15.30;99.90
51557;DHT22;38766;53.194;5.532;2022-09-16T07:59:13;15.60;99.90
51557;DHT22;38766;53.194;5.532;2022-09-16T08:01:39;15.80;99.90
51557;DHT22;38766;53.194;5.532;2022-09-16T08:04:04;15.90;99.90
51557;DHT22;38766;53.194;5.532;2022-09-16T08:06:31;16.20;99.90
51557;DHT22;38766;53.194;5.532;2022-09-16T08:08:58;16.30;99.90
51557;DHT22;38766;53.194;5.532;2022-09-16T08:11:25;16.50;99.90
51557;DHT22;38766;53.194;5.532;2022-09-16T08:13:51;16.60;99.90
51557;DHT22;38766;53.194;5.532;2022-09-16T08:16:19;16.80;99.90
51557;DHT22;38766;53.194;5.532;2022-09-16T08:18:47;17.10;99.90
51557;DHT22;38766;53.194;5.532;2022-09-16T08:21:16;17.20;99.90
51557;DHT22;38766;53.194;5.532;2022-09-16T08:23:43;17.30;99.90
51557;DHT22;38766;53.194;5.532;2022-09-16T08:26:10;17.40;99.90
51557;DHT22;38766;53.194;5.532;2022-09-16T08:28:40;17.40;99.90
51557;DHT22;38766;53.194;5.532;2022-09-16T08:31:06;17.40;99.90
51557;DHT22;38766;53.194;5.532;2022-09-16T08:33:32;17.50;99.90
51557;DHT22;38766;53.194;5.532;2022-09-16T08:38:27;17.70;99.90
51557;DHT22;38766;53.194;5.532;2022-09-16T08:43:50;17.90;97.60
51557;DHT22;38766;53.194;5.532;2022-09-16T08:46:22;18.00;97.80
51557;DHT22;38766;53.194;5.532;2022-09-16T08:49:12;18.10;97.60
51557;DHT22;38766;53.194;5.532;2022-09-16T08:51:41;18.20;96.70
51557;DHT22;38766;53.194;5.532;2022-09-16T08:54:20;18.20;96.80
51557;DHT22;38766;53.194;5.532;2022-09-16T08:56:49;18.40;95.90
51557;DHT22;38766;53.194;5.532;2022-09-16T08:59:20;18.50;96.50
51557;DHT22;38766;53.194;5.532;2022-09-16T09:01:55;18.50;96.80
51557;DHT22;38766;53.194;5.532;2022-09-16T09:04:22;18.50;96.20
51557;DHT22;38766;53.194;5.532;2022-09-16T09:07:26;18.30;96.80
51557;DHT22;38766;53.194;5.532;2022-09-16T09:12:58;17.90;96.60
51557;DHT22;38766;53.194;5.532;2022-09-16T09:15:40;17.80;96.40
51557;DHT22;38766;53.194;5.532;2022-09-16T09:20:53;17.90;96.30
51557;DHT22;38766;53.194;5.532;2022-09-16T09:23:54;18.10;96.70
51557;DHT22;38766;53.194;5.532;2022-09-16T09:26:43;18.30;96.00
51557;DHT22;38766;53.194;5.532;2022-09-16T09:29:43;18.50;95.80
51557;DHT22;38766;53.194;5.532;2022-09-16T09:32:43;18.60;95.30
51557;DHT22;38766;53.194;5.532;2022-09-16T09:41:09;19.10;93.20
51557;DHT22;38766;53.194;5.532;2022-09-16T09:46:19;19.10;94.20
51557;DHT22;38766;53.194;5.532;2022-09-16T09:48:59;19.10;94.00
51557;DHT22;38766;53.194;5.532;2022-09-16T09:51:41;19.20;93.80
51557;DHT22;38766;53.194;5.532;2022-09-16T09:54:29;19.40;93.40
51557;DHT22;38766;53.194;5.532;2022-09-16T09:57:15;19.40;92.40
51557;DHT22;38766;53.194;5.532;2022-09-16T10:00:02;19.40;91.90
51557;DHT22;38766;53.194;5.532;2022-09-16T10:02:33;19.40;90.40
51557;DHT22;38766;53.194;5.532;2022-09-16T10:04:59;19.40;91.70
51557;DHT22;38766;53.194;5.532;2022-09-16T10:07:26;19.50;91.60
51557;DHT22;38766;53.194;5.532;2022-09-16T10:10:00;19.70;91.70
51557;DHT22;38766;53.194;5.532;2022-09-16T10:12:30;19.80;90.20
51557;DHT22;38766;53.194;5.532;2022-09-16T10:14:56;19.80;90.80
51557;DHT22;38766;53.194;5.532;2022-09-16T10:17:21;19.80;90.60
51557;DHT22;38766;53.194;5.532;2022-09-16T10:19:59;19.80;90.30
51557;DHT22;38766;53.194;5.532;2022-09-16T10:22:28;19.90;88.70
51557;DHT22;38766;53.194;5.532;2022-09-16T10:25:06;19.90;89.90
51557;DHT22;38766;53.194;5.532;2022-09-16T10:27:59;19.90;89.40
51557;DHT22;38766;53.194;5.532;2022-09-16T10:30:27;19.80;90.10
51557;DHT22;38766;53.194;5.532;2022-09-16T10:32:57;19.60;90.70
51557;DHT22;38766;53.194;5.532;2022-09-16T10:35:30;19.40;90.50
51557;DHT22;38766;53.194;5.532;2022-09-16T10:37:58;19.40;90.90
51557;DHT22;38766;53.194;5.532;2022-09-16T10:40:26;19.40;91.10
51557;DHT22;38766;53.194;5.532;2022-09-16T10:42:58;19.60;91.20
51557;DHT22;38766;53.194;5.532;2022-09-16T10:45:27;19.60;90.70
51557;DHT22;38766;53.194;5.532;2022-09-16T10:47:58;19.70;90.20
51557;DHT22;38766;53.194;5.532;2022-09-16T10:50:25;19.80;90.80
51557;DHT22;38766;53.194;5.532;2022-09-16T10:52:52;19.90;90.80
51557;DHT22;38766;53.194;5.532;2022-09-16T10:55:31;20.00;90.60
51557;DHT22;38766;53.194;5.532;2022-09-16T10:58:17;20.10;90.00
51557;DHT22;38766;53.194;5.532;2022-09-16T11:01:07;20.10;88.70
51557;DHT22;38766;53.194;5.532;2022-09-16T11:15:18;19.70;88.80
51557;DHT22;38766;53.194;5.532;2022-09-16T11:26:06;19.80;88.10
51557;DHT22;38766;53.194;5.532;2022-09-16T11:28:42;19.90;88.80
51557;DHT22;38766;53.194;5.532;2022-09-16T11:42:21;20.30;86.50
51557;DHT22;38766;53.194;5.532;2022-09-16T11:44:56;20.40;86.50
51557;DHT22;38766;53.194;5.532;2022-09-16T11:53:57;20.20;87.20
51557;DHT22;38766;53.194;5.532;2022-09-16T11:56:43;20.10;85.30
51557;DHT22;38766;53.194;5.532;2022-09-16T11:59:19;20.10;85.00
51557;DHT22;38766;53.194;5.532;2022-09-16T12:02:02;20.10;83.90
51557;DHT22;38766;53.194;5.532;2022-09-16T12:04:41;20.10;83.80
51557;DHT22;38766;53.194;5.532;2022-09-16T12:07:41;20.10;82.70
51557;DHT22;38766;53.194;5.532;2022-09-16T12:13:14;20.10;83.50
51557;DHT22;38766;53.194;5.532;2022-09-16T12:18:23;20.20;82.50
51557;DHT22;38766;53.194;5.532;2022-09-16T12:21:02;20.20;82.80
51557;DHT22;38766;53.194;5.532;2022-09-16T12:23:33;20.20;83.10
51557;DHT22;38766;53.194;5.532;2022-09-16T12:26:09;20.00;83.80
51557;DHT22;38766;53.194;5.532;2022-09-16T12:28:43;19.90;84.60
51557;DHT22;38766;53.194;5.532;2022-09-16T12:34:14;19.60;86.10
51557;DHT22;38766;53.194;5.532;2022-09-16T12:36:44;19.50;86.30
51557;DHT22;38766;53.194;5.532;2022-09-16T12:39:12;19.50;86.60
51557;DHT22;38766;53.194;5.532;2022-09-16T12:59:06;19.30;84.80
51557;DHT22;38766;53.194;5.532;2022-09-16T13:01:48;19.40;85.10
51557;DHT22;38766;53.194;5.532;2022-09-16T13:04:25;19.40;85.30
51557;DHT22;38766;53.194;5.532;2022-09-16T13:06:54;19.40;85.20
51557;DHT22;38766;53.194;5.532;2022-09-16T13:09:31;19.40;85.00
51557;DHT22;38766;53.194;5.532;2022-09-16T13:12:16;19.40;85.10
51557;DHT22;38766;53.194;5.532;2022-09-16T13:15:03;19.40;85.70
51557;DHT22;38766;53.194;5.532;2022-09-16T13:17:35;19.50;86.00
51557;DHT22;38766;53.194;5.532;2022-09-16T13:25:46;19.50;84.90
51557;DHT22;38766;53.194;5.532;2022-09-16T13:28:23;19.50;84.80
51557;DHT22;38766;53.194;5.532;2022-09-16T13:30:53;19.50;83.40
51557;DHT22;38766;53.194;5.532;2022-09-16T13:33:26;19.50;83.30
51557;DHT22;38766;53.194;5.532;2022-09-16T13:38:58;19.50;81.40
51557;DHT22;38766;53.194;5.532;2022-09-16T13:41:36;19.50;79.50
51557;DHT22;38766;53.194;5.532;2022-09-16T13:46:51;19.60;79.90
51557;DHT22;38766;53.194;5.532;2022-09-16T13:49:23;19.70;80.20
51557;DHT22;38766;53.194;5.532;2022-09-16T13:51:51;19.80;81.10
51557;DHT22;38766;53.194;5.532;2022-09-16T13:54:22;19.80;80.80
51557;DHT22;38766;53.194;5.532;2022-09-16T13:59:44;19.80;80.70
51557;DHT22;38766;53.194;5.532;2022-09-16T14:02:17;19.70;81.00
51557;DHT22;38766;53.194;5.532;2022-09-16T14:07:50;19.50;81.50
51557;DHT22;38766;53.194;5.532;2022-09-16T14:14:02;19.50;82.60
51557;DHT22;38766;53.194;5.532;2022-09-16T14:16:41;19.50;83.40
51557;DHT22;38766;53.194;5.532;2022-09-16T14:19:36;19.50;83.30
51557;DHT22;38766;53.194;5.532;2022-09-16T14:22:05;19.40;82.90
51557;DHT22;38766;53.194;5.532;2022-09-16T14:24:38;19.40;83.40
51557;DHT22;38766;53.194;5.532;2022-09-16T14:27:32;19.20;84.60
51557;DHT22;38766;53.194;5.532;2022-09-16T14:30:25;19.10;84.70
51557;DHT22;38766;53.194;5.532;2022-09-16T14:32:53;18.90;85.10
51557;DHT22;38766;53.194;5.532;2022-09-16T14:35:23;18.70;85.80
51557;DHT22;38766;53.194;5.532;2022-09-16T14:37:54;18.50;86.60
51557;DHT22;38766;53.194;5.532;2022-09-16T14:40:22;18.50;87.10
51557;DHT22;38766;53.194;5.532;2022-09-16T14:42:52;18.40;87.00
51557;DHT22;38766;53.194;5.532;2022-09-16T14:45:19;18.20;90.00
51557;DHT22;38766;53.194;5.532;2022-09-16T14:47:47;17.80;91.90
51557;DHT22;38766;53.194;5.532;2022-09-16T14:50:18;17.50;93.80
51557;DHT22;38766;53.194;5.532;2022-09-16T14:52:56;17.30;96.10
51557;DHT22;38766;53.194;5.532;2022-09-16T14:55:27;17.00;98.90
51557;DHT22;38766;53.194;5.532;2022-09-16T14:57:58;16.90;99.90
51557;DHT22;38766;53.194;5.532;2022-09-16T15:00:29;16.80;99.90
51557;DHT22;38766;53.194;5.532;2022-09-16T15:03:15;16.70;99.90
51557;DHT22;38766;53.194;5.532;2022-09-16T15:05:45;16.60;99.90
51557;DHT22;38766;53.194;5.532;2022-09-16T15:11:47;16.60;99.90
51557;DHT22;38766;53.194;5.532;2022-09-16T15:14:16;16.50;99.90
51557;DHT22;38766;53.194;5.532;2022-09-16T15:17:00;16.50;99.90
51557;DHT22;38766;53.194;5.532;2022-09-16T15:19:35;16.50;99.90
51557;DHT22;38766;53.194;5.532;2022-09-16T15:22:03;16.50;99.90
51557;DHT22;38766;53.194;5.532;2022-09-16T15:24:32;16.40;99.90
51557;DHT22;38766;53.194;5.532;2022-09-16T15:26:58;16.30;99.90
51557;DHT22;38766;53.194;5.532;2022-09-16T15:29:26;16.20;99.90
51557;DHT22;38766;53.194;5.532;2022-09-16T15:31:52;16.00;99.90
51557;DHT22;38766;53.194;5.532;2022-09-16T15:36:54;15.70;99.90
51557;DHT22;38766;53.194;5.532;2022-09-16T15:39:31;15.40;99.90
51557;DHT22;38766;53.194;5.532;2022-09-16T15:42:11;15.30;99.90
51557;DHT22;38766;53.194;5.532;2022-09-16T15:44:47;15.30;99.90
51557;DHT22;38766;53.194;5.532;2022-09-16T15:47:32;15.30;99.90
51557;DHT22;38766;53.194;5.532;2022-09-16T15:50:13;15.20;99.90
51557;DHT22;38766;53.194;5.532;2022-09-16T15:55:34;15.00;99.90
51557;DHT22;38766;53.194;5.532;2022-09-16T15:58:12;14.80;99.90
51557;DHT22;38766;53.194;5.532;2022-09-16T16:06:09;14.80;99.90
51557;DHT22;38766;53.194;5.532;2022-09-16T16:08:41;14.80;99.90
51557;DHT22;38766;53.194;5.532;2022-09-16T16:11:13;14.80;99.90
51557;DHT22;38766;53.194;5.532;2022-09-16T16:13:39;14.80;99.90
51557;DHT22;38766;53.194;5.532;2022-09-16T16:16:08;14.90;99.90
51557;DHT22;38766;53.194;5.532;2022-09-16T16:18:35;14.80;99.90
51557;DHT22;38766;53.194;5.532;2022-09-16T16:21:07;14.70;99.90
51557;DHT22;38766;53.194;5.532;2022-09-16T16:23:33;14.70;99.90
51557;DHT22;38766;53.194;5.532;2022-09-16T16:26:02;14.80;99.90
51557;DHT22;38766;53.194;5.532;2022-09-16T16:28:27;14.70;99.90
51557;DHT22;38766;53.194;5.532;2022-09-16T16:31:06;14.70;99.90
51557;DHT22;38766;53.194;5.532;2022-09-16T16:33:32;14.80;99.90
51557;DHT22;38766;53.194;5.532;2022-09-16T16:35:58;14.80;99.90
51557;DHT22;38766;53.194;5.532;2022-09-16T16:38:24;14.80;99.90
51557;DHT22;38766;53.194;5.532;2022-09-16T16:40:50;14.80;99.90
51557;DHT22;38766;53.194;5.532;2022-09-16T16:43:15;14.80;99.90
51557;DHT22;38766;53.194;5.532;2022-09-16T16:45:41;14.80;99.90
51557;DHT22;38766;53.194;5.532;2022-09-16T16:48:07;14.80;99.90
51557;DHT22;38766;53.194;5.532;2022-09-16T16:50:32;14.80;99.90
51557;DHT22;38766;53.194;5.532;2022-09-16T16:52:58;14.70;99.90
51557;DHT22;38766;53.194;5.532;2022-09-16T16:55:24;14.70;99.90
51557;DHT22;38766;53.194;5.532;2022-09-16T16:57:49;14.70;99.90
51557;DHT22;38766;53.194;5.532;2022-09-16T17:00:15;14.70;99.90
51557;DHT22;38766;53.194;5.532;2022-09-16T17:02:41;14.70;99.90
51557;DHT22;38766;53.194;5.532;2022-09-16T17:05:07;14.70;99.90
51557;DHT22;38766;53.194;5.532;2022-09-16T17:07:33;14.70;99.90
51557;DHT22;38766;53.194;5.532;2022-09-16T17:09:58;14.60;99.90
51557;DHT22;38766;53.194;5.532;2022-09-16T17:12:25;14.50;99.90
51557;DHT22;38766;53.194;5.532;2022-09-16T17:14:51;14.30;99.90
51557;DHT22;38766;53.194;5.532;2022-09-16T17:17:16;14.20;99.90
51557;DHT22;38766;53.194;5.532;2022-09-16T17:19:42;14.10;99.90
51557;DHT22;38766;53.194;5.532;2022-09-16T17:22:07;14.10;99.90
51557;DHT22;38766;53.194;5.532;2022-09-16T17:24:33;14.00;99.90
51557;DHT22;38766;53.194;5.532;2022-09-16T17:26:59;13.90;99.90
51557;DHT22;38766;53.194;5.532;2022-09-16T17:29:24;13.90;99.90
51557;DHT22;38766;53.194;5.532;2022-09-16T17:31:50;13.80;99.90
51557;DHT22;38766;53.194;5.532;2022-09-16T17:34:16;13.80;99.90
51557;DHT22;38766;53.194;5.532;2022-09-16T17:36:43;13.80;99.90
51557;DHT22;38766;53.194;5.532;2022-09-16T17:39:17;13.80;99.90
51557;DHT22;38766;53.194;5.532;2022-09-16T17:41:44;13.80;99.90
51557;DHT22;38766;53.194;5.532;2022-09-16T17:44:11;13.80;99.90
51557;DHT22;38766;53.194;5.532;2022-09-16T17:46:38;13.70;99.90
51557;DHT22;38766;53.194;5.532;2022-09-16T17:49:14;13.70;99.90
51557;DHT22;38766;53.194;5.532;2022-09-16T17:51:40;13.70;99.90
51557;DHT22;38766;53.194;5.532;2022-09-16T17:54:05;13.70;99.90
51557;DHT22;38766;53.194;5.532;2022-09-16T17:56:33;13.70;99.90
51557;DHT22;38766;53.194;5.532;2022-09-16T17:58:59;13.70;99.90
51557;DHT22;38766;53.194;5.532;2022-09-16T18:01:25;13.70;99.90
51557;DHT22;38766;53.194;5.532;2022-09-16T18:03:53;13.70;99.90
51557;DHT22;38766;53.194;5.532;2022-09-16T18:06:22;13.70;99.90
51557;DHT22;38766;53.194;5.532;2022-09-16T18:08:49;13.70;99.90
51557;DHT22;38766;53.194;5.532;2022-09-16T18:11:15;13.70;99.90
51557;DHT22;38766;53.194;5.532;2022-09-16T18:13:42;13.80;99.90
51557;DHT22;38766;53.194;5.532;2022-09-16T18:16:18;13.80;99.90
51557;DHT22;38766;53.194;5.532;2022-09-16T18:18:45;13.90;99.90
51557;DHT22;38766;53.194;5.532;2022-09-16T18:21:16;13.90;99.90
51557;DHT22;38766;53.194;5.532;2022-09-16T18:23:45;13.80;99.90
51557;DHT22;38766;53.194;5.532;2022-09-16T18:26:12;13.70;99.90
51557;DHT22;38766;53.194;5.532;2022-09-16T18:28:42;13.70;99.90
51557;DHT22;38766;53.194;5.532;2022-09-16T18:31:10;13.70;99.90
51557;DHT22;38766;53.194;5.532;2022-09-16T18:33:36;13.60;99.90
51557;DHT22;38766;53.194;5.532;2022-09-16T18:36:07;13.70;99.90